sensor_id;sensor_type;location;lat;lon;timestamp;temperature;humidity
65239;SHT30;51827;51.186;6.926;2022-12-29T00:01:00;18.32;56.16
65239;SHT30;51827;51.186;6.926;2022-12-29T00:02:01;18.32;56.15
65239;SHT30;51827;51.186;6.926;2022-12-29T00:03:01;18.30;56.17
65239;SHT30;51827;51.186;6.926;2022-12-29T00:04:02;18.32;56.19
65239;SHT30;51827;51.186;6.926;2022-12-29T00:05:03;18.28;56.15
65239;SHT30;51827;51.186;6.926;2022-12-29T00:06:03;18.28;56.21
65239;SHT30;51827;51.186;6.926;2022-12-29T00:07:04;18.28;56.20
65239;SHT30;51827;51.186;6.926;2022-12-29T00:08:04;18.30;56.18
65239;SHT30;51827;51.186;6.926;2022-12-29T00:09:05;18.27;56.21
65239;SHT30;51827;51.186;6.926;2022-12-29T00:10:06;18.28;56.26
65239;SHT30;51827;51.186;6.926;2022-12-29T00:12:07;18.30;56.23
65239;SHT30;51827;51.186;6.926;2022-12-29T00:13:07;18.31;56.25
65239;SHT30;51827;51.186;6.926;2022-12-29T00:14:11;18.28;56.25
65239;SHT30;51827;51.186;6.926;2022-12-29T00:15:11;18.30;56.24
65239;SHT30;51827;51.186;6.926;2022-12-29T00:16:12;18.28;56.21
65239;SHT30;51827;51.186;6.926;2022-12-29T00:17:12;18.28;56.28
65239;SHT30;51827;51.186;6.926;2022-12-29T00:18:13;18.31;56.27
65239;SHT30;51827;51.186;6.926;2022-12-29T00:19:13;18.28;56.22
65239;SHT30;51827;51.186;6.926;2022-12-29T00:20:13;18.31;56.24
65239;SHT30;51827;51.186;6.926;2022-12-29T00:21:15;18.30;56.24
65239;SHT30;51827;51.186;6.926;2022-12-29T00:22:16;18.32;56.18
65239;SHT30;51827;51.186;6.926;2022-12-29T00:23:16;18.30;56.21
65239;SHT30;51827;51.186;6.926;2022-12-29T00:24:21;18.31;56.23
65239;SHT30;51827;51.186;6.926;2022-12-29T00:25:21;18.28;56.26
65239;SHT30;51827;51.186;6.926;2022-12-29T00:26:21;18.30;56.31
65239;SHT30;51827;51.186;6.926;2022-12-29T00:27:22;18.28;56.26
65239;SHT30;51827;51.186;6.926;2022-12-29T00:28:22;18.30;56.25
65239;SHT30;51827;51.186;6.926;2022-12-29T00:29:22;18.30;56.21
65239;SHT30;51827;51.186;6.926;2022-12-29T00:30:23;18.30;56.18
65239;SHT30;51827;51.186;6.926;2022-12-29T00:31:23;18.31;56.23
65239;SHT30;51827;51.186;6.926;2022-12-29T00:32:24;18.31;56.28
65239;SHT30;51827;51.186;6.926;2022-12-29T00:33:33;18.30;56.24
65239;SHT30;51827;51.186;6.926;2022-12-29T00:34:33;18.28;56.27
65239;SHT30;51827;51.186;6.926;2022-12-29T00:35:46;18.30;56.28
65239;SHT30;51827;51.186;6.926;2022-12-29T00:36:48;18.30;56.23
65239;SHT30;51827;51.186;6.926;2022-12-29T00:37:48;18.30;56.22
65239;SHT30;51827;51.186;6.926;2022-12-29T00:38:51;18.31;56.22
65239;SHT30;51827;51.186;6.926;2022-12-29T00:39:53;18.30;56.28
65239;SHT30;51827;51.186;6.926;2022-12-29T00:40:53;18.30;56.22
65239;SHT30;51827;51.186;6.926;2022-12-29T00:41:53;18.30;56.26
65239;SHT30;51827;51.186;6.926;2022-12-29T00:42:53;18.31;56.25
65239;SHT30;51827;51.186;6.926;2022-12-29T00:43:54;18.30;56.23
65239;SHT30;51827;51.186;6.926;2022-12-29T00:44:54;18.32;56.23
65239;SHT30;51827;51.186;6.926;2022-12-29T00:45:54;18.32;56.24
65239;SHT30;51827;51.186;6.926;2022-12-29T00:46:55;18.31;56.24
65239;SHT30;51827;51.186;6.926;2022-12-29T00:47:55;18.31;56.23
65239;SHT30;51827;51.186;6.926;2022-12-29T00:48:56;18.31;56.22
65239;SHT30;51827;51.186;6.926;2022-12-29T00:49:56;18.30;56.27
65239;SHT30;51827;51.186;6.926;2022-12-29T00:50:56;18.31;56.27
65239;SHT30;51827;51.186;6.926;2022-12-29T00:52:08;18.31;56.28
65239;SHT30;51827;51.186;6.926;2022-12-29T00:53:09;18.31;56.30
65239;SHT30;51827;51.186;6.926;2022-12-29T00:54:09;18.31;56.25
65239;SHT30;51827;51.186;6.926;2022-12-29T00:55:09;18.31;56.24
65239;SHT30;51827;51.186;6.926;2022-12-29T00:56:09;18.31;56.24
65239;SHT30;51827;51.186;6.926;2022-12-29T00:57:10;18.31;56.21
65239;SHT30;51827;51.186;6.926;2022-12-29T00:58:11;18.31;56.21
65239;SHT30;51827;51.186;6.926;2022-12-29T00:59:11;18.32;56.27
65239;SHT30;51827;51.186;6.926;2022-12-29T01:00:11;18.32;56.23
65239;SHT30;51827;51.186;6.926;2022-12-29T01:01:12;18.34;56.27
65239;SHT30;51827;51.186;6.926;2022-12-29T01:02:12;18.32;56.23
65239;SHT30;51827;51.186;6.926;2022-12-29T01:03:12;18.31;56.23
65239;SHT30;51827;51.186;6.926;2022-12-29T01:04:13;18.32;56.17
65239;SHT30;51827;51.186;6.926;2022-12-29T01:05:13;18.31;56.27
65239;SHT30;51827;51.186;6.926;2022-12-29T01:06:13;18.31;56.24
65239;SHT30;51827;51.186;6.926;2022-12-29T01:07:14;18.35;56.23
65239;SHT30;51827;51.186;6.926;2022-12-29T01:08:14;18.32;56.23
65239;SHT30;51827;51.186;6.926;2022-12-29T01:09:15;18.32;56.23
65239;SHT30;51827;51.186;6.926;2022-12-29T01:10:16;18.32;56.24
65239;SHT30;51827;51.186;6.926;2022-12-29T01:11:16;18.32;56.32
65239;SHT30;51827;51.186;6.926;2022-12-29T01:12:17;18.34;56.25
65239;SHT30;51827;51.186;6.926;2022-12-29T01:13:17;18.30;56.31
65239;SHT30;51827;51.186;6.926;2022-12-29T01:14:18;18.32;56.28
65239;SHT30;51827;51.186;6.926;2022-12-29T01:15:19;18.32;56.25
65239;SHT30;51827;51.186;6.926;2022-12-29T01:16:19;18.31;56.28
65239;SHT30;51827;51.186;6.926;2022-12-29T01:17:19;18.32;56.23
65239;SHT30;51827;51.186;6.926;2022-12-29T01:18:21;18.32;56.25
65239;SHT30;51827;51.186;6.926;2022-12-29T01:19:22;18.35;56.26
65239;SHT30;51827;51.186;6.926;2022-12-29T01:20:22;18.32;56.29
65239;SHT30;51827;51.186;6.926;2022-12-29T01:21:23;18.28;56.32
65239;SHT30;51827;51.186;6.926;2022-12-29T01:22:23;18.32;56.28
65239;SHT30;51827;51.186;6.926;2022-12-29T01:23:23;18.32;56.29
65239;SHT30;51827;51.186;6.926;2022-12-29T01:24:24;18.31;56.26
65239;SHT30;51827;51.186;6.926;2022-12-29T01:25:24;18.31;56.30
65239;SHT30;51827;51.186;6.926;2022-12-29T01:26:24;18.32;56.30
65239;SHT30;51827;51.186;6.926;2022-12-29T01:27:25;18.31;56.29
65239;SHT30;51827;51.186;6.926;2022-12-29T01:28:25;18.34;56.30
65239;SHT30;51827;51.186;6.926;2022-12-29T01:29:26;18.32;56.31
65239;SHT30;51827;51.186;6.926;2022-12-29T01:30:26;18.34;56.34
65239;SHT30;51827;51.186;6.926;2022-12-29T01:31:26;18.32;56.30
65239;SHT30;51827;51.186;6.926;2022-12-29T01:32:26;18.31;56.31
65239;SHT30;51827;51.186;6.926;2022-12-29T01:33:27;18.32;56.31
65239;SHT30;51827;51.186;6.926;2022-12-29T01:34:27;18.32;56.31
65239;SHT30;51827;51.186;6.926;2022-12-29T01:35:27;18.35;56.31
65239;SHT30;51827;51.186;6.926;2022-12-29T01:36:27;18.35;56.33
65239;SHT30;51827;51.186;6.926;2022-12-29T01:37:28;18.32;56.31
65239;SHT30;51827;51.186;6.926;2022-12-29T01:38:28;18.35;56.25
65239;SHT30;51827;51.186;6.926;2022-12-29T01:39:28;18.35;56.28
65239;SHT30;51827;51.186;6.926;2022-12-29T01:40:28;18.34;56.33
65239;SHT30;51827;51.186;6.926;2022-12-29T01:41:29;18.35;56.26
65239;SHT30;51827;51.186;6.926;2022-12-29T01:42:29;18.32;56.36
65239;SHT30;51827;51.186;6.926;2022-12-29T01:44:59;18.34;56.31
65239;SHT30;51827;51.186;6.926;2022-12-29T01:46:00;18.34;56.38
65239;SHT30;51827;51.186;6.926;2022-12-29T01:47:00;18.35;56.38
65239;SHT30;51827;51.186;6.926;2022-12-29T01:48:03;18.32;56.35
65239;SHT30;51827;51.186;6.926;2022-12-29T01:49:13;18.34;56.39
65239;SHT30;51827;51.186;6.926;2022-12-29T01:50:24;18.32;56.42
65239;SHT30;51827;51.186;6.926;2022-12-29T01:51:29;18.34;56.41
65239;SHT30;51827;51.186;6.926;2022-12-29T01:52:32;18.32;56.39
65239;SHT30;51827;51.186;6.926;2022-12-29T01:53:34;18.31;56.48
65239;SHT30;51827;51.186;6.926;2022-12-29T01:54:36;18.32;56.48
65239;SHT30;51827;51.186;6.926;2022-12-29T01:55:44;18.34;56.47
65239;SHT30;51827;51.186;6.926;2022-12-29T01:56:46;18.34;56.41
65239;SHT30;51827;51.186;6.926;2022-12-29T01:57:48;18.37;56.39
65239;SHT30;51827;51.186;6.926;2022-12-29T01:58:54;18.35;56.40
65239;SHT30;51827;51.186;6.926;2022-12-29T02:00:10;18.38;56.38
65239;SHT30;51827;51.186;6.926;2022-12-29T02:01:11;18.37;56.39
65239;SHT30;51827;51.186;6.926;2022-12-29T02:02:11;18.35;56.39
65239;SHT30;51827;51.186;6.926;2022-12-29T02:03:12;18.35;56.43
65239;SHT30;51827;51.186;6.926;2022-12-29T02:04:12;18.32;56.46
65239;SHT30;51827;51.186;6.926;2022-12-29T02:06:23;18.34;56.48
65239;SHT30;51827;51.186;6.926;2022-12-29T02:07:26;18.34;56.43
65239;SHT30;51827;51.186;6.926;2022-12-29T02:08:28;18.34;56.48
65239;SHT30;51827;51.186;6.926;2022-12-29T02:09:29;18.35;56.45
65239;SHT30;51827;51.186;6.926;2022-12-29T02:10:31;18.35;56.43
65239;SHT30;51827;51.186;6.926;2022-12-29T02:11:34;18.34;56.46
65239;SHT30;51827;51.186;6.926;2022-12-29T02:12:35;18.37;56.51
65239;SHT30;51827;51.186;6.926;2022-12-29T02:13:35;18.34;56.46
65239;SHT30;51827;51.186;6.926;2022-12-29T02:14:35;18.34;56.49
65239;SHT30;51827;51.186;6.926;2022-12-29T02:21:38;18.35;56.54
65239;SHT30;51827;51.186;6.926;2022-12-29T02:26:02;18.35;56.51
65239;SHT30;51827;51.186;6.926;2022-12-29T02:27:31;18.35;56.50
65239;SHT30;51827;51.186;6.926;2022-12-29T02:32:03;18.34;56.55
65239;SHT30;51827;51.186;6.926;2022-12-29T02:34:54;18.34;56.54
65239;SHT30;51827;51.186;6.926;2022-12-29T02:36:07;18.37;56.55
65239;SHT30;51827;51.186;6.926;2022-12-29T02:37:41;18.37;56.50
65239;SHT30;51827;51.186;6.926;2022-12-29T02:39:38;18.35;56.53
65239;SHT30;51827;51.186;6.926;2022-12-29T02:40:58;18.32;56.56
65239;SHT30;51827;51.186;6.926;2022-12-29T02:42:18;18.37;56.58
65239;SHT30;51827;51.186;6.926;2022-12-29T02:43:47;18.37;56.59
65239;SHT30;51827;51.186;6.926;2022-12-29T02:45:12;18.37;56.61
65239;SHT30;51827;51.186;6.926;2022-12-29T02:46:29;18.37;56.57
65239;SHT30;51827;51.186;6.926;2022-12-29T02:47:41;18.37;56.55
65239;SHT30;51827;51.186;6.926;2022-12-29T02:51:26;18.35;56.54
65239;SHT30;51827;51.186;6.926;2022-12-29T02:52:33;18.37;56.58
65239;SHT30;51827;51.186;6.926;2022-12-29T02:53:35;18.34;56.58
65239;SHT30;51827;51.186;6.926;2022-12-29T02:54:36;18.37;56.59
65239;SHT30;51827;51.186;6.926;2022-12-29T02:55:36;18.34;56.64
65239;SHT30;51827;51.186;6.926;2022-12-29T02:56:37;18.35;56.61
65239;SHT30;51827;51.186;6.926;2022-12-29T02:57:37;18.34;56.61
65239;SHT30;51827;51.186;6.926;2022-12-29T02:58:37;18.37;56.57
65239;SHT30;51827;51.186;6.926;2022-12-29T02:59:38;18.38;56.56
65239;SHT30;51827;51.186;6.926;2022-12-29T03:01:07;18.37;56.57
65239;SHT30;51827;51.186;6.926;2022-12-29T03:04:38;18.38;56.57
65239;SHT30;51827;51.186;6.926;2022-12-29T03:05:59;18.37;56.54
65239;SHT30;51827;51.186;6.926;2022-12-29T03:10:37;18.35;56.58
65239;SHT30;51827;51.186;6.926;2022-12-29T03:12:07;18.37;56.59
65239;SHT30;51827;51.186;6.926;2022-12-29T03:17:35;18.38;56.55
65239;SHT30;51827;51.186;6.926;2022-12-29T03:20:10;18.38;56.56
65239;SHT30;51827;51.186;6.926;2022-12-29T03:21:53;18.37;56.54
65239;SHT30;51827;51.186;6.926;2022-12-29T03:22:59;18.35;56.57
65239;SHT30;51827;51.186;6.926;2022-12-29T03:24:00;18.37;56.59
65239;SHT30;51827;51.186;6.926;2022-12-29T03:25:18;18.37;56.57
65239;SHT30;51827;51.186;6.926;2022-12-29T03:26:20;18.35;56.56
65239;SHT30;51827;51.186;6.926;2022-12-29T03:27:28;18.37;56.55
65239;SHT30;51827;51.186;6.926;2022-12-29T03:28:36;18.35;56.57
65239;SHT30;51827;51.186;6.926;2022-12-29T03:30:05;18.37;56.57
65239;SHT30;51827;51.186;6.926;2022-12-29T03:31:07;18.37;56.59
65239;SHT30;51827;51.186;6.926;2022-12-29T03:32:09;18.35;56.53
65239;SHT30;51827;51.186;6.926;2022-12-29T03:33:14;18.38;56.57
65239;SHT30;51827;51.186;6.926;2022-12-29T03:34:17;18.35;56.53
65239;SHT30;51827;51.186;6.926;2022-12-29T03:35:22;18.38;56.56
65239;SHT30;51827;51.186;6.926;2022-12-29T03:36:39;18.37;56.58
65239;SHT30;51827;51.186;6.926;2022-12-29T03:37:51;18.35;56.48
65239;SHT30;51827;51.186;6.926;2022-12-29T03:39:00;18.40;56.53
65239;SHT30;51827;51.186;6.926;2022-12-29T03:40:03;18.35;56.53
65239;SHT30;51827;51.186;6.926;2022-12-29T03:41:08;18.35;56.57
65239;SHT30;51827;51.186;6.926;2022-12-29T03:42:20;18.35;56.50
65239;SHT30;51827;51.186;6.926;2022-12-29T03:43:21;18.37;56.51
65239;SHT30;51827;51.186;6.926;2022-12-29T03:44:37;18.40;56.50
65239;SHT30;51827;51.186;6.926;2022-12-29T03:45:38;18.38;56.56
65239;SHT30;51827;51.186;6.926;2022-12-29T03:46:38;18.38;56.49
65239;SHT30;51827;51.186;6.926;2022-12-29T03:47:38;18.40;56.50
65239;SHT30;51827;51.186;6.926;2022-12-29T03:48:38;18.40;56.50
65239;SHT30;51827;51.186;6.926;2022-12-29T03:49:39;18.40;56.49
65239;SHT30;51827;51.186;6.926;2022-12-29T03:50:39;18.37;56.53
65239;SHT30;51827;51.186;6.926;2022-12-29T03:51:39;18.40;56.53
65239;SHT30;51827;51.186;6.926;2022-12-29T03:52:40;18.37;56.49
65239;SHT30;51827;51.186;6.926;2022-12-29T03:53:40;18.37;56.49
65239;SHT30;51827;51.186;6.926;2022-12-29T03:54:40;18.40;56.51
65239;SHT30;51827;51.186;6.926;2022-12-29T03:55:40;18.40;56.49
65239;SHT30;51827;51.186;6.926;2022-12-29T03:56:41;18.35;56.53
65239;SHT30;51827;51.186;6.926;2022-12-29T03:57:41;18.38;56.53
65239;SHT30;51827;51.186;6.926;2022-12-29T03:58:41;18.38;56.55
65239;SHT30;51827;51.186;6.926;2022-12-29T03:59:41;18.38;56.48
65239;SHT30;51827;51.186;6.926;2022-12-29T04:00:41;18.38;56.48
65239;SHT30;51827;51.186;6.926;2022-12-29T04:01:42;18.38;56.46
65239;SHT30;51827;51.186;6.926;2022-12-29T04:02:42;18.40;56.51
65239;SHT30;51827;51.186;6.926;2022-12-29T04:03:42;18.35;56.53
65239;SHT30;51827;51.186;6.926;2022-12-29T04:04:43;18.40;56.45
65239;SHT30;51827;51.186;6.926;2022-12-29T04:05:43;18.38;56.49
65239;SHT30;51827;51.186;6.926;2022-12-29T04:06:43;18.38;56.53
65239;SHT30;51827;51.186;6.926;2022-12-29T04:07:43;18.37;56.57
65239;SHT30;51827;51.186;6.926;2022-12-29T04:08:43;18.37;56.57
65239;SHT30;51827;51.186;6.926;2022-12-29T04:09:44;18.38;56.52
65239;SHT30;51827;51.186;6.926;2022-12-29T04:10:44;18.37;56.50
65239;SHT30;51827;51.186;6.926;2022-12-29T04:11:44;18.40;56.50
65239;SHT30;51827;51.186;6.926;2022-12-29T04:12:44;18.41;56.48
65239;SHT30;51827;51.186;6.926;2022-12-29T04:13:45;18.40;56.51
65239;SHT30;51827;51.186;6.926;2022-12-29T04:14:45;18.40;56.48
65239;SHT30;51827;51.186;6.926;2022-12-29T04:15:45;18.41;56.42
65239;SHT30;51827;51.186;6.926;2022-12-29T04:16:45;18.41;56.49
65239;SHT30;51827;51.186;6.926;2022-12-29T04:17:46;18.40;56.48
65239;SHT30;51827;51.186;6.926;2022-12-29T04:18:46;18.40;56.46
65239;SHT30;51827;51.186;6.926;2022-12-29T04:19:47;18.40;56.49
65239;SHT30;51827;51.186;6.926;2022-12-29T04:20:47;18.40;56.50
65239;SHT30;51827;51.186;6.926;2022-12-29T04:21:47;18.38;56.53
65239;SHT30;51827;51.186;6.926;2022-12-29T04:22:47;18.40;56.53
65239;SHT30;51827;51.186;6.926;2022-12-29T04:23:48;18.41;56.52
65239;SHT30;51827;51.186;6.926;2022-12-29T04:24:48;18.40;56.49
65239;SHT30;51827;51.186;6.926;2022-12-29T04:25:48;18.40;56.50
65239;SHT30;51827;51.186;6.926;2022-12-29T04:26:52;18.41;56.49
65239;SHT30;51827;51.186;6.926;2022-12-29T04:27:53;18.41;56.44
65239;SHT30;51827;51.186;6.926;2022-12-29T04:28:53;18.40;56.50
65239;SHT30;51827;51.186;6.926;2022-12-29T04:29:53;18.38;56.49
65239;SHT30;51827;51.186;6.926;2022-12-29T04:30:53;18.40;56.49
65239;SHT30;51827;51.186;6.926;2022-12-29T04:31:54;18.41;56.56
65239;SHT30;51827;51.186;6.926;2022-12-29T04:32:54;18.41;56.53
65239;SHT30;51827;51.186;6.926;2022-12-29T04:33:54;18.40;56.54
65239;SHT30;51827;51.186;6.926;2022-12-29T04:34:54;18.42;56.50
65239;SHT30;51827;51.186;6.926;2022-12-29T04:35:55;18.42;56.47
65239;SHT30;51827;51.186;6.926;2022-12-29T04:36:55;18.44;56.47
65239;SHT30;51827;51.186;6.926;2022-12-29T04:37:55;18.42;56.53
65239;SHT30;51827;51.186;6.926;2022-12-29T04:38:56;18.42;56.53
65239;SHT30;51827;51.186;6.926;2022-12-29T04:39:56;18.38;56.52
65239;SHT30;51827;51.186;6.926;2022-12-29T04:40:59;18.41;56.56
65239;SHT30;51827;51.186;6.926;2022-12-29T04:42:00;18.41;56.51
65239;SHT30;51827;51.186;6.926;2022-12-29T04:43:00;18.41;56.55
65239;SHT30;51827;51.186;6.926;2022-12-29T04:44:00;18.41;56.53
65239;SHT30;51827;51.186;6.926;2022-12-29T04:45:01;18.41;56.51
65239;SHT30;51827;51.186;6.926;2022-12-29T04:46:01;18.41;56.52
65239;SHT30;51827;51.186;6.926;2022-12-29T04:47:01;18.41;56.55
65239;SHT30;51827;51.186;6.926;2022-12-29T04:48:02;18.41;56.57
65239;SHT30;51827;51.186;6.926;2022-12-29T04:49:02;18.41;56.57
65239;SHT30;51827;51.186;6.926;2022-12-29T04:50:03;18.41;56.54
65239;SHT30;51827;51.186;6.926;2022-12-29T04:51:03;18.40;56.54
65239;SHT30;51827;51.186;6.926;2022-12-29T04:52:04;18.41;56.54
65239;SHT30;51827;51.186;6.926;2022-12-29T04:53:04;18.42;56.51
65239;SHT30;51827;51.186;6.926;2022-12-29T04:54:04;18.42;56.51
65239;SHT30;51827;51.186;6.926;2022-12-29T04:55:05;18.41;56.48
65239;SHT30;51827;51.186;6.926;2022-12-29T04:56:06;18.44;56.50
65239;SHT30;51827;51.186;6.926;2022-12-29T04:57:06;18.42;56.47
65239;SHT30;51827;51.186;6.926;2022-12-29T04:58:06;18.45;56.46
65239;SHT30;51827;51.186;6.926;2022-12-29T04:59:06;18.45;56.48
65239;SHT30;51827;51.186;6.926;2022-12-29T05:00:07;18.42;56.53
65239;SHT30;51827;51.186;6.926;2022-12-29T05:01:08;18.40;56.48
65239;SHT30;51827;51.186;6.926;2022-12-29T05:02:08;18.44;56.51
65239;SHT30;51827;51.186;6.926;2022-12-29T05:03:08;18.44;56.47
65239;SHT30;51827;51.186;6.926;2022-12-29T05:04:08;18.42;56.49
65239;SHT30;51827;51.186;6.926;2022-12-29T05:05:09;18.42;56.52
65239;SHT30;51827;51.186;6.926;2022-12-29T05:06:09;18.42;56.49
65239;SHT30;51827;51.186;6.926;2022-12-29T05:07:09;18.42;56.49
65239;SHT30;51827;51.186;6.926;2022-12-29T05:08:10;18.42;56.58
65239;SHT30;51827;51.186;6.926;2022-12-29T05:09:10;18.44;56.53
65239;SHT30;51827;51.186;6.926;2022-12-29T05:10:11;18.42;56.51
65239;SHT30;51827;51.186;6.926;2022-12-29T05:11:11;18.44;56.53
65239;SHT30;51827;51.186;6.926;2022-12-29T05:12:11;18.41;56.52
65239;SHT30;51827;51.186;6.926;2022-12-29T05:13:12;18.44;56.50
65239;SHT30;51827;51.186;6.926;2022-12-29T05:14:12;18.44;56.54
65239;SHT30;51827;51.186;6.926;2022-12-29T05:15:12;18.44;56.51
65239;SHT30;51827;51.186;6.926;2022-12-29T05:16:13;18.44;56.48
65239;SHT30;51827;51.186;6.926;2022-12-29T05:17:13;18.45;56.46
65239;SHT30;51827;51.186;6.926;2022-12-29T05:18:13;18.44;56.49
65239;SHT30;51827;51.186;6.926;2022-12-29T05:19:13;18.44;56.53
65239;SHT30;51827;51.186;6.926;2022-12-29T05:20:13;18.45;56.47
65239;SHT30;51827;51.186;6.926;2022-12-29T05:21:14;18.44;56.47
65239;SHT30;51827;51.186;6.926;2022-12-29T05:22:14;18.44;56.48
65239;SHT30;51827;51.186;6.926;2022-12-29T05:23:14;18.45;56.48
65239;SHT30;51827;51.186;6.926;2022-12-29T05:24:15;18.45;56.48
65239;SHT30;51827;51.186;6.926;2022-12-29T05:25:15;18.41;56.50
65239;SHT30;51827;51.186;6.926;2022-12-29T05:26:16;18.45;56.48
65239;SHT30;51827;51.186;6.926;2022-12-29T05:27:16;18.45;56.44
65239;SHT30;51827;51.186;6.926;2022-12-29T05:28:16;18.45;56.47
65239;SHT30;51827;51.186;6.926;2022-12-29T05:29:17;18.42;56.49
65239;SHT30;51827;51.186;6.926;2022-12-29T05:30:17;18.45;56.49
65239;SHT30;51827;51.186;6.926;2022-12-29T05:31:17;18.47;56.47
65239;SHT30;51827;51.186;6.926;2022-12-29T05:32:17;18.44;56.47
65239;SHT30;51827;51.186;6.926;2022-12-29T05:33:18;18.47;56.43
65239;SHT30;51827;51.186;6.926;2022-12-29T05:34:19;18.47;56.48
65239;SHT30;51827;51.186;6.926;2022-12-29T05:35:19;18.47;56.44
65239;SHT30;51827;51.186;6.926;2022-12-29T05:36:19;18.47;56.47
65239;SHT30;51827;51.186;6.926;2022-12-29T05:37:20;18.44;56.47
65239;SHT30;51827;51.186;6.926;2022-12-29T05:38:20;18.44;56.44
65239;SHT30;51827;51.186;6.926;2022-12-29T05:39:20;18.42;56.50
65239;SHT30;51827;51.186;6.926;2022-12-29T05:40:20;18.42;56.48
65239;SHT30;51827;51.186;6.926;2022-12-29T05:41:21;18.47;56.45
65239;SHT30;51827;51.186;6.926;2022-12-29T05:42:21;18.45;56.43
65239;SHT30;51827;51.186;6.926;2022-12-29T05:43:21;18.45;56.38
65239;SHT30;51827;51.186;6.926;2022-12-29T05:44:21;18.45;56.44
65239;SHT30;51827;51.186;6.926;2022-12-29T05:45:22;18.45;56.44
65239;SHT30;51827;51.186;6.926;2022-12-29T05:46:22;18.44;56.46
65239;SHT30;51827;51.186;6.926;2022-12-29T05:47:22;18.48;56.42
65239;SHT30;51827;51.186;6.926;2022-12-29T05:48:22;18.45;56.40
65239;SHT30;51827;51.186;6.926;2022-12-29T05:49:23;18.44;56.44
65239;SHT30;51827;51.186;6.926;2022-12-29T05:50:23;18.47;56.38
65239;SHT30;51827;51.186;6.926;2022-12-29T05:51:23;18.48;56.37
65239;SHT30;51827;51.186;6.926;2022-12-29T05:52:23;18.48;56.37
65239;SHT30;51827;51.186;6.926;2022-12-29T05:53:24;18.45;56.41
65239;SHT30;51827;51.186;6.926;2022-12-29T05:54:24;18.45;56.40
65239;SHT30;51827;51.186;6.926;2022-12-29T05:55:24;18.45;56.44
65239;SHT30;51827;51.186;6.926;2022-12-29T05:56:25;18.45;56.44
65239;SHT30;51827;51.186;6.926;2022-12-29T05:57:25;18.45;56.46
65239;SHT30;51827;51.186;6.926;2022-12-29T05:58:25;18.45;56.41
65239;SHT30;51827;51.186;6.926;2022-12-29T05:59:25;18.45;56.41
65239;SHT30;51827;51.186;6.926;2022-12-29T06:00:26;18.45;56.40
65239;SHT30;51827;51.186;6.926;2022-12-29T06:01:26;18.45;56.42
65239;SHT30;51827;51.186;6.926;2022-12-29T06:02:26;18.48;56.39
65239;SHT30;51827;51.186;6.926;2022-12-29T06:03:26;18.47;56.41
65239;SHT30;51827;51.186;6.926;2022-12-29T06:04:27;18.44;56.41
65239;SHT30;51827;51.186;6.926;2022-12-29T06:05:27;18.45;56.45
65239;SHT30;51827;51.186;6.926;2022-12-29T06:06:27;18.45;56.39
65239;SHT30;51827;51.186;6.926;2022-12-29T06:07:28;18.47;56.39
65239;SHT30;51827;51.186;6.926;2022-12-29T06:08:28;18.45;56.39
65239;SHT30;51827;51.186;6.926;2022-12-29T06:09:28;18.44;56.36
65239;SHT30;51827;51.186;6.926;2022-12-29T06:10:28;18.47;56.39
65239;SHT30;51827;51.186;6.926;2022-12-29T06:11:29;18.47;56.36
65239;SHT30;51827;51.186;6.926;2022-12-29T06:12:29;18.45;56.36
65239;SHT30;51827;51.186;6.926;2022-12-29T06:13:29;18.45;56.38
65239;SHT30;51827;51.186;6.926;2022-12-29T06:14:29;18.45;56.39
65239;SHT30;51827;51.186;6.926;2022-12-29T06:15:30;18.49;56.36
65239;SHT30;51827;51.186;6.926;2022-12-29T06:16:30;18.47;56.36
65239;SHT30;51827;51.186;6.926;2022-12-29T06:17:30;18.45;56.37
65239;SHT30;51827;51.186;6.926;2022-12-29T06:18:30;18.44;56.35
65239;SHT30;51827;51.186;6.926;2022-12-29T06:19:31;18.47;56.35
65239;SHT30;51827;51.186;6.926;2022-12-29T06:20:31;18.47;56.32
65239;SHT30;51827;51.186;6.926;2022-12-29T06:21:31;18.48;56.30
65239;SHT30;51827;51.186;6.926;2022-12-29T06:22:31;18.47;56.28
65239;SHT30;51827;51.186;6.926;2022-12-29T06:23:32;18.47;56.29
65239;SHT30;51827;51.186;6.926;2022-12-29T06:24:32;18.47;56.28
65239;SHT30;51827;51.186;6.926;2022-12-29T06:25:32;18.47;56.31
65239;SHT30;51827;51.186;6.926;2022-12-29T06:26:32;18.48;56.31
65239;SHT30;51827;51.186;6.926;2022-12-29T06:27:33;18.48;56.31
65239;SHT30;51827;51.186;6.926;2022-12-29T06:28:33;18.45;56.26
65239;SHT30;51827;51.186;6.926;2022-12-29T06:29:33;18.48;56.30
65239;SHT30;51827;51.186;6.926;2022-12-29T06:30:33;18.47;56.26
65239;SHT30;51827;51.186;6.926;2022-12-29T06:31:34;18.48;56.25
65239;SHT30;51827;51.186;6.926;2022-12-29T06:32:34;18.48;56.28
65239;SHT30;51827;51.186;6.926;2022-12-29T06:33:35;18.48;56.25
65239;SHT30;51827;51.186;6.926;2022-12-29T06:34:35;18.48;56.24
65239;SHT30;51827;51.186;6.926;2022-12-29T06:35:35;18.47;56.28
65239;SHT30;51827;51.186;6.926;2022-12-29T06:36:36;18.47;56.31
65239;SHT30;51827;51.186;6.926;2022-12-29T06:37:36;18.49;56.28
65239;SHT30;51827;51.186;6.926;2022-12-29T06:38:36;18.47;56.27
65239;SHT30;51827;51.186;6.926;2022-12-29T06:39:36;18.48;56.26
65239;SHT30;51827;51.186;6.926;2022-12-29T06:40:37;18.48;56.34
65239;SHT30;51827;51.186;6.926;2022-12-29T06:41:37;18.49;56.35
65239;SHT30;51827;51.186;6.926;2022-12-29T06:42:37;18.48;56.37
65239;SHT30;51827;51.186;6.926;2022-12-29T06:43:37;18.48;56.32
65239;SHT30;51827;51.186;6.926;2022-12-29T06:44:38;18.49;56.33
65239;SHT30;51827;51.186;6.926;2022-12-29T06:45:39;18.51;56.28
65239;SHT30;51827;51.186;6.926;2022-12-29T06:46:39;18.52;56.31
65239;SHT30;51827;51.186;6.926;2022-12-29T06:47:40;18.48;56.34
65239;SHT30;51827;51.186;6.926;2022-12-29T06:48:40;18.52;56.31
65239;SHT30;51827;51.186;6.926;2022-12-29T06:49:40;18.51;56.34
65239;SHT30;51827;51.186;6.926;2022-12-29T06:50:40;18.51;56.39
65239;SHT30;51827;51.186;6.926;2022-12-29T06:51:41;18.52;56.41
65239;SHT30;51827;51.186;6.926;2022-12-29T06:52:41;18.51;56.37
65239;SHT30;51827;51.186;6.926;2022-12-29T06:53:41;18.51;56.40
65239;SHT30;51827;51.186;6.926;2022-12-29T06:54:41;18.48;56.46
65239;SHT30;51827;51.186;6.926;2022-12-29T06:55:42;18.47;56.43
65239;SHT30;51827;51.186;6.926;2022-12-29T06:56:42;18.48;56.44
65239;SHT30;51827;51.186;6.926;2022-12-29T06:57:42;18.49;56.44
65239;SHT30;51827;51.186;6.926;2022-12-29T06:58:42;18.51;56.43
65239;SHT30;51827;51.186;6.926;2022-12-29T06:59:43;18.48;56.41
65239;SHT30;51827;51.186;6.926;2022-12-29T07:00:43;18.48;56.40
65239;SHT30;51827;51.186;6.926;2022-12-29T07:01:43;18.48;56.41
65239;SHT30;51827;51.186;6.926;2022-12-29T07:02:43;18.52;56.42
65239;SHT30;51827;51.186;6.926;2022-12-29T07:03:44;18.48;56.43
65239;SHT30;51827;51.186;6.926;2022-12-29T07:04:44;18.48;56.43
65239;SHT30;51827;51.186;6.926;2022-12-29T07:05:44;18.49;56.41